Time;durP1;ratioP1;P1;durP2;ratioP2;P2;SDS_P1;SDS_P2;PMS_P1;PMS_P2;Temp;Humidity;BMP_temperature;BMP_pressure;BME280_temperature;BME280_humidity;BME280_pressure;Samples;Min_cycle;Max_cycle;Signal;HPM_P1;HPM_P2
2021/04/02 00:00:19;;;;;;;16.30;7.10;;;;;;;8.43;100.00;95986.25;1035960;28;20257;-49
2021/04/02 00:00:53;;;;;;;14.50;7.28;;;;;;;8.44;100.00;95990.56;1039949;28;20112;-48
2021/04/02 00:01:23;;;;;;;14.13;7.85;;;;;;;8.45;100.00;95987.03;1039949;28;20268;-48
2021/04/02 00:01:54;;;;;;;12.15;7.53;;;;;;;8.45;100.00;95987.03;1039834;28;20288;-50
2021/04/02 00:02:26;;;;;;;14.48;8.50;;;;;;;8.45;100.00;95984.44;1031863;28;20027;-47
2021/04/02 00:03:27;;;;;;;12.55;7.47;;;;;;;8.45;100.00;95993.09;1035867;28;20033;-49
2021/04/02 00:03:58;;;;;;;14.55;7.70;;;;;;;8.46;100.00;95986.91;1040032;28;20248;-49
2021/04/02 00:04:29;;;;;;;14.18;7.53;;;;;;;8.46;100.00;95983.47;1035879;28;20262;-48
2021/04/02 00:04:59;;;;;;;13.38;8.02;;;;;;;8.46;100.00;95994.75;1035988;28;20462;-48
2021/04/02 00:05:30;;;;;;;12.65;7.47;;;;;;;8.46;100.00;95986.91;1035984;28;20077;-50
2021/04/02 00:06:02;;;;;;;18.38;8.25;;;;;;;8.47;100.00;95982.56;1027746;28;20019;-48
2021/04/02 00:06:33;;;;;;;14.73;8.60;;;;;;;8.48;100.00;95986.84;1028552;28;20503;-49
2021/04/02 00:07:06;;;;;;;13.80;7.80;;;;;;;8.49;100.00;95988.53;1040021;28;20271;-48
2021/04/02 00:07:37;;;;;;;14.13;8.40;;;;;;;8.50;100.00;95982.34;1039972;28;20027;-49
2021/04/02 00:08:08;;;;;;;13.27;7.25;;;;;;;8.52;100.00;95989.19;1035852;28;20276;-48
2021/04/02 00:08:39;;;;;;;16.20;8.43;;;;;;;8.52;100.00;95990.91;1035955;28;20075;-49
2021/04/02 00:09:12;;;;;;;15.63;8.18;;;;;;;8.55;100.00;95983.75;1039889;28;20611;-48
2021/04/02 00:09:42;;;;;;;17.88;8.15;;;;;;;8.55;100.00;95988.13;1040123;28;20537;-50
2021/04/02 00:10:16;;;;;;;14.55;7.78;;;;;;;8.57;100.00;95991.50;1043955;28;20260;-49
2021/04/02 00:10:51;;;;;;;17.33;8.02;;;;;;;8.60;100.00;95985.25;1031708;28;20072;-47
2021/04/02 00:11:22;;;;;;;16.98;8.93;;;;;;;8.77;100.00;95982.44;1031798;28;20245;-49
2021/04/02 00:11:53;;;;;;;16.80;8.45;;;;;;;8.77;100.00;95990.25;1027844;28;20258;-51
2021/04/02 00:12:23;;;;;;;20.02;8.68;;;;;;;8.79;100.00;95985.78;1035839;28;20092;-49
2021/04/02 00:12:54;;;;;;;17.20;8.57;;;;;;;8.79;100.00;95987.56;1031927;28;20344;-48
2021/04/02 00:13:28;;;;;;;19.80;8.93;;;;;;;8.50;100.00;95944.03;1040003;28;20016;-50
2021/04/02 00:13:59;;;;;;;14.27;7.85;;;;;;;8.76;100.00;95983.34;1039833;28;20382;-50
2021/04/02 00:14:30;;;;;;;19.98;9.32;;;;;;;8.79;100.00;95985.78;1031703;28;20246;-48
2021/04/02 00:15:00;;;;;;;16.75;8.60;;;;;;;8.82;100.00;95989.97;1035966;28;20017;-49
2021/04/02 00:15:31;;;;;;;17.85;9.88;;;;;;;8.86;100.00;95983.59;1031929;28;20130;-48
2021/04/02 00:16:02;;;;;;;17.38;9.85;;;;;;;8.94;100.00;95981.38;1035852;28;20419;-49
2021/04/02 00:16:33;;;;;;;20.15;8.93;;;;;;;9.01;100.00;95982.66;1035795;28;20105;-50
2021/04/02 00:17:04;;;;;;;18.98;10.05;;;;;;;9.06;100.00;95979.72;1035995;28;20268;-48
2021/04/02 00:17:35;;;;;;;15.50;9.00;;;;;;;9.15;100.00;95976.53;1031937;28;20472;-49
2021/04/02 00:18:08;;;;;;;17.52;9.70;;;;;;;9.21;100.00;95972.69;1035873;28;20026;-49
2021/04/02 00:18:39;;;;;;;21.35;10.73;;;;;;;9.24;100.00;95975.94;1039947;28;20028;-48
2021/04/02 00:19:10;;;;;;;19.80;10.13;;;;;;;9.26;100.00;95978.47;1031904;28;20246;-48
2021/04/02 00:19:41;;;;;;;20.83;10.02;;;;;;;9.27;100.00;95974.91;1036049;28;20607;-51
2021/04/02 00:20:14;;;;;;;19.17;10.25;;;;;;;9.34;100.00;95970.94;1040385;28;20566;-48
2021/04/02 00:20:45;;;;;;;18.48;9.85;;;;;;;9.33;100.00;95979.75;1038181;28;20054;-52
2021/04/02 00:21:16;;;;;;;18.75;10.38;;;;;;;9.34;100.00;95978.78;1039550;28;20253;-52
2021/04/02 00:21:47;;;;;;;17.85;9.55;;;;;;;9.41;100.00;95976.63;1043658;28;20495;-53
2021/04/02 00:22:18;;;;;;;21.25;10.98;;;;;;;9.40;100.00;95972.31;1040220;28;20320;-51
2021/04/02 00:22:48;;;;;;;23.55;10.93;;;;;;;9.39;100.00;95973.28;1035773;28;20117;-51
2021/04/02 00:23:19;;;;;;;23.00;11.50;;;;;;;9.38;100.00;95972.44;1035169;28;20022;-53
2021/04/02 00:23:50;;;;;;;17.80;9.98;;;;;;;9.39;100.00;95974.13;1039026;28;20559;-50
2021/04/02 00:24:21;;;;;;;22.80;11.05;;;;;;;9.39;100.00;95971.50;1039886;28;20283;-50
2021/04/02 00:24:52;;;;;;;21.70;10.82;;;;;;;9.47;100.00;95974.44;1039290;28;20346;-55
2021/04/02 00:25:22;;;;;;;17.92;10.13;;;;;;;9.47;100.00;95971.00;1035465;28;20346;-51
2021/04/02 00:25:54;;;;;;;24.42;11.88;;;;;;;9.49;100.00;95974.34;1039257;28;20569;-52
2021/04/02 00:26:25;;;;;;;20.33;10.85;;;;;;;9.51;100.00;95973.28;1042331;28;20018;-49
2021/04/02 00:26:55;;;;;;;23.02;10.05;;;;;;;9.58;100.00;95972.91;1036766;28;20337;-49
2021/04/02 00:27:26;;;;;;;19.10;10.52;;;;;;;9.56;100.00;95973.00;1031644;28;20400;-49
2021/04/02 00:27:57;;;;;;;18.75;10.40;;;;;;;9.55;100.00;95968.69;1035792;28;20018;-48
2021/04/02 00:28:28;;;;;;;19.90;11.40;;;;;;;9.57;100.00;95966.81;1031793;28;20037;-50
2021/04/02 00:28:59;;;;;;;21.95;10.80;;;;;;;9.63;100.00;95971.66;1035770;28;20018;-49
2021/04/02 00:29:29;;;;;;;21.50;10.23;;;;;;;9.60;100.00;95971.03;1027675;28;20246;-48
2021/04/02 00:30:00;;;;;;;19.88;9.65;;;;;;;9.57;100.00;95960.75;1039841;28;20063;-50
2021/04/02 00:30:41;;;;;;;18.80;11.23;;;;;;;9.60;100.00;95966.63;1035761;28;20112;-49
2021/04/02 00:31:12;;;;;;;22.05;11.02;;;;;;;9.56;100.00;95962.53;1031606;28;20356;-49
2021/04/02 00:31:43;;;;;;;26.35;11.70;;;;;;;9.63;100.00;95966.44;1031973;28;20299;-48
2021/04/02 00:32:14;;;;;;;22.27;11.73;;;;;;;9.60;100.00;95966.63;1035847;28;20041;-49
2021/04/02 00:32:45;;;;;;;18.35;11.00;;;;;;;9.66;100.00;95968.00;1043949;28;20247;-48
2021/04/02 00:33:18;;;;;;;21.13;10.80;;;;;;;9.63;100.00;95957.72;1039880;28;20033;-52
2021/04/02 00:33:49;;;;;;;20.92;11.63;;;;;;;9.64;100.00;95960.25;1043671;28;20032;-48
2021/04/02 00:34:20;;;;;;;18.65;11.27;;;;;;;9.70;100.00;95965.09;1035686;28;20285;-50
2021/04/02 00:34:51;;;;;;;20.23;11.77;;;;;;;9.76;100.00;95963.00;1035853;28;20021;-49
2021/04/02 00:35:22;;;;;;;24.58;11.02;;;;;;;9.73;100.00;95961.44;1035642;28;20069;-49
2021/04/02 00:35:53;;;;;;;23.15;12.75;;;;;;;9.68;100.00;95963.50;1035902;28;20279;-49
2021/04/02 00:36:24;;;;;;;18.88;10.65;;;;;;;9.67;100.00;95970.53;1035713;28;20065;-52
2021/04/02 00:36:54;;;;;;;28.17;13.40;;;;;;;9.66;100.00;95968.81;1031726;28;20532;-49
2021/04/02 00:37:25;;;;;;;22.85;11.30;;;;;;;9.70;100.00;95965.09;1031620;28;20026;-49
2021/04/02 00:37:56;;;;;;;27.40;11.65;;;;;;;9.72;100.00;95965.81;1031678;28;20476;-49
2021/04/02 00:38:28;;;;;;;21.73;11.55;;;;;;;9.76;100.00;95966.47;1035724;28;20018;-49
2021/04/02 00:38:59;;;;;;;22.30;12.38;;;;;;;9.77;100.00;95968.13;1032041;28;20273;-49
2021/04/02 00:39:30;;;;;;;19.15;11.88;;;;;;;9.76;100.00;95969.09;1039724;28;20260;-50
2021/04/02 00:40:01;;;;;;;24.88;11.98;;;;;;;9.78;100.00;95963.72;1035751;28;20017;-49
2021/04/02 00:40:35;;;;;;;22.80;11.85;;;;;;;9.82;100.00;95967.84;1031726;28;20033;-48
2021/04/02 00:41:10;;;;;;;22.98;12.48;;;;;;;9.85;100.00;95965.00;1027719;28;20023;-51
2021/04/02 00:41:40;;;;;;;23.67;13.23;;;;;;;9.84;100.00;95966.78;1035753;28;20249;-49
2021/04/02 00:42:11;;;;;;;24.95;13.80;;;;;;;9.85;100.00;95962.38;1035704;28;20249;-49
2021/04/02 00:42:42;;;;;;;21.00;12.00;;;;;;;9.80;100.00;95961.84;1035902;28;20077;-51
2021/04/02 00:43:14;;;;;;;24.38;13.07;;;;;;;9.80;100.00;95964.44;1027733;28;20038;-49
2021/04/02 00:43:47;;;;;;;29.10;13.27;;;;;;;9.81;100.00;95966.97;1031407;28;20092;-48
2021/04/02 00:44:18;;;;;;;26.45;12.07;;;;;;;9.80;100.00;95967.94;1027767;28;20254;-50
2021/04/02 00:44:49;;;;;;;23.30;12.57;;;;;;;9.80;100.00;95954.84;1027737;28;20290;-49
2021/04/02 00:45:20;;;;;;;23.25;13.63;;;;;;;9.81;100.00;95959.13;1027717;28;20492;-49
2021/04/02 00:45:51;;;;;;;24.25;12.70;;;;;;;9.86;100.00;95964.91;1031736;28;20045;-48
2021/04/02 00:46:22;;;;;;;21.95;13.50;;;;;;;9.93;100.00;95958.31;1036623;28;20273;-49
2021/04/02 00:46:53;;;;;;;27.52;13.65;;;;;;;9.90;100.00;95961.13;1036772;28;20010;-49
2021/04/02 00:47:23;;;;;;;23.45;13.35;;;;;;;9.88;100.00;95964.78;1028590;28;20840;-50
2021/04/02 00:47:55;;;;;;;21.80;13.23;;;;;;;9.88;100.00;95964.78;1036447;28;20034;-49
2021/04/02 00:48:26;;;;;;;24.58;13.73;;;;;;;9.85;100.00;95965.84;1036597;28;20097;-49
2021/04/02 00:48:56;;;;;;;22.02;13.30;;;;;;;9.83;100.00;95962.47;1032614;28;20265;-48
2021/04/02 00:49:27;;;;;;;27.58;12.98;;;;;;;9.83;100.00;95957.25;1040695;28;20009;-49
2021/04/02 00:49:58;;;;;;;22.23;14.00;;;;;;;9.81;100.00;95960.91;1040474;28;20010;-52
2021/04/02 00:50:46;;;;;;;22.10;13.23;;;;;;;9.77;100.00;95960.28;1040778;28;20499;-47
2021/04/02 00:51:26;;;;;;;28.75;13.52;;;;;;;9.84;100.00;95958.09;1036554;28;20026;-49
2021/04/02 00:51:57;;;;;;;23.85;14.30;;;;;;;9.83;100.00;95956.41;1032549;28;20623;-49
2021/04/02 00:52:28;;;;;;;25.52;14.07;;;;;;;9.81;100.00;95958.28;1036521;28;20022;-49
2021/04/02 00:52:59;;;;;;;26.95;14.10;;;;;;;9.78;100.00;95964.59;1036555;28;20260;-48
2021/04/02 00:53:32;;;;;;;30.58;14.52;;;;;;;9.76;100.00;95960.38;1036297;28;20022;-46
2021/04/02 00:54:02;;;;;;;25.95;14.50;;;;;;;9.75;100.00;95958.72;1032399;28;20018;-51
2021/04/02 00:54:34;;;;;;;23.25;13.63;;;;;;;9.70;100.00;95952.00;1032455;28;20258;-49
2021/04/02 00:55:06;;;;;;;29.10;14.07;;;;;;;9.71;100.00;95958.91;1036608;28;20080;-47
2021/04/02 00:55:37;;;;;;;23.05;14.05;;;;;;;9.71;100.00;95963.31;1036497;28;20363;-49
2021/04/02 00:56:09;;;;;;;23.17;13.98;;;;;;;9.71;100.00;95958.06;1036397;28;20249;-49
2021/04/02 00:56:40;;;;;;;24.10;13.27;;;;;;;9.66;100.00;95960.97;1032569;28;20340;-49
2021/04/02 00:57:11;;;;;;;24.90;13.90;;;;;;;9.66;100.00;95966.22;1032504;28;20262;-50
2021/04/02 00:57:42;;;;;;;25.17;14.65;;;;;;;9.65;100.00;95959.31;1032490;28;20041;-48
2021/04/02 00:58:15;;;;;;;27.92;14.32;;;;;;;9.64;100.00;95964.66;1032440;28;20077;-49
2021/04/02 00:58:46;;;;;;;24.30;13.63;;;;;;;9.63;100.00;95958.59;1032468;28;20258;-49
2021/04/02 00:59:17;;;;;;;24.27;14.20;;;;;;;9.63;100.00;95955.97;1032407;28;20294;-52
2021/04/02 00:59:47;;;;;;;24.30;14.48;;;;;;;9.62;100.00;95963.91;1040463;28;20017;-48
2021/04/02 01:00:18;;;;;;;27.35;15.35;;;;;;;9.60;100.00;95963.19;1032242;28;20503;-50
2021/04/02 01:00:49;;;;;;;23.50;14.60;;;;;;;9.56;100.00;95964.34;1036533;28;20040;-49
2021/04/02 01:01:20;;;;;;;22.13;14.15;;;;;;;9.53;100.00;95962.75;1032446;28;20029;-48
2021/04/02 01:01:51;;;;;;;21.42;14.60;;;;;;;9.50;100.00;95963.78;1036589;28;20348;-50
2021/04/02 01:02:22;;;;;;;25.20;14.30;;;;;;;9.46;100.00;95958.84;1044646;28;20482;-49
2021/04/02 01:02:54;;;;;;;21.08;13.38;;;;;;;9.48;100.00;95960.44;1036498;28;20480;-48
2021/04/02 01:03:25;;;;;;;23.05;15.43;;;;;;;9.52;100.00;95958.47;1032554;28;20023;-47
2021/04/02 01:03:55;;;;;;;23.90;14.52;;;;;;;9.50;100.00;95961.16;1036352;28;20685;-50
2021/04/02 01:04:26;;;;;;;28.10;15.25;;;;;;;9.50;100.00;95965.56;1036316;28;20021;-49
2021/04/02 01:04:57;;;;;;;27.10;14.13;;;;;;;9.47;100.00;95961.38;1040592;28;20029;-51
2021/04/02 01:05:31;;;;;;;21.55;14.00;;;;;;;9.49;100.00;95964.72;1036642;28;20018;-48
2021/04/02 01:06:04;;;;;;;23.30;15.02;;;;;;;9.50;100.00;95962.97;1028392;28;20054;-49
2021/04/02 01:06:35;;;;;;;29.33;14.88;;;;;;;9.55;100.00;95955.63;1036366;28;20281;-50
2021/04/02 01:07:06;;;;;;;30.40;15.80;;;;;;;9.54;100.00;95956.59;1044695;28;20652;-48
2021/04/02 01:07:36;;;;;;;22.42;15.32;;;;;;;9.48;100.00;95957.81;1040532;28;20033;-48
2021/04/02 01:08:09;;;;;;;29.00;14.45;;;;;;;9.49;100.00;95956.88;1036556;28;20615;-51
2021/04/02 01:08:39;;;;;;;27.77;15.27;;;;;;;9.46;100.00;95964.06;1032348;28;20122;-49
2021/04/02 01:09:10;;;;;;;27.08;15.70;;;;;;;9.39;100.00;95955.81;1040632;28;20257;-48
2021/04/02 01:09:43;;;;;;;26.65;15.73;;;;;;;9.42;100.00;95958.22;1032443;28;20038;-48
2021/04/02 01:10:16;;;;;;;30.23;16.75;;;;;;;9.42;100.00;95966.06;1036433;28;20476;-48
2021/04/02 01:10:47;;;;;;;22.73;15.07;;;;;;;9.38;100.00;95955.91;1040517;28;20283;-49
2021/04/02 01:11:19;;;;;;;26.73;15.45;;;;;;;9.36;100.00;95960.41;1040373;28;20633;-49
2021/04/02 01:11:49;;;;;;;32.03;14.90;;;;;;;9.34;100.00;95965.72;1036521;28;20026;-49
2021/04/02 01:12:20;;;;;;;26.00;15.68;;;;;;;9.36;100.00;95963.00;1044650;28;20256;-49
2021/04/02 01:13:01;;;;;;;26.60;16.73;;;;;;;9.33;100.00;95959.66;1036286;28;20014;-47
2021/04/02 01:13:36;;;;;;;22.20;15.45;;;;;;;9.33;100.00;95961.44;1032334;28;20015;-48
2021/04/02 01:14:06;;;;;;;25.80;15.32;;;;;;;9.31;100.00;95969.38;1032267;28;20272;-49
2021/04/02 01:14:37;;;;;;;25.85;15.77;;;;;;;9.27;100.00;95957.47;1032512;28;20260;-49
2021/04/02 01:15:13;;;;;;;25.02;15.85;;;;;;;9.26;100.00;95955.75;1028224;28;20069;-48
2021/04/02 01:15:48;;;;;;;27.73;16.40;;;;;;;9.26;100.00;95962.78;1032439;28;20023;-48
2021/04/02 01:16:28;;;;;;;27.63;16.48;;;;;;;9.25;100.00;95958.47;1032547;28;20782;-49
2021/04/02 01:16:59;;;;;;;27.85;17.40;;;;;;;9.22;100.00;95967.38;1039030;28;20290;-49
2021/04/02 01:17:30;;;;;;;36.65;16.45;;;;;;;9.21;100.00;95960.44;1032439;28;20053;-49
2021/04/02 01:18:03;;;;;;;25.95;15.88;;;;;;;9.20;100.00;95960.56;1040500;28;20252;-47
2021/04/02 01:18:46;;;;;;;27.40;16.02;;;;;;;9.19;100.00;95962.31;1040611;28;20017;-47
2021/04/02 01:19:26;;;;;;;27.42;16.35;;;;;;;9.19;100.00;95958.88;1036264;28;20265;-48
2021/04/02 01:19:57;;;;;;;29.98;16.15;;;;;;;9.22;100.00;95958.69;1032451;28;20249;-49
2021/04/02 01:20:30;;;;;;;28.73;17.42;;;;;;;9.23;100.00;95965.59;1028459;28;20026;-55
2021/04/02 01:21:06;;;;;;;31.50;17.55;;;;;;;9.32;100.00;95963.19;1036512;28;20442;-48
2021/04/02 01:21:42;;;;;;;28.65;16.48;;;;;;;9.40;100.00;95961.88;1032398;28;20260;-48
2021/04/02 01:22:18;;;;;;;34.30;16.67;;;;;;;9.36;100.00;95960.41;1028330;28;20813;-48
2021/04/02 01:22:49;;;;;;;27.15;16.58;;;;;;;9.33;100.00;95958.84;1032515;28;20253;-49
2021/04/02 01:23:21;;;;;;;30.55;17.50;;;;;;;9.34;100.00;95963.09;1036198;28;20271;-51
2021/04/02 01:24:01;;;;;;;27.70;17.30;;;;;;;9.32;100.00;95957.16;1036349;28;20022;-52
2021/04/02 01:24:36;;;;;;;;;;;;;;;9.35;100.00;95962.19;1045119;28;20339;-49
2021/04/02 01:25:19;;;;;;;28.15;16.88;;;;;;;9.33;100.00;95962.28;1036404;28;19905;-48
2021/04/02 01:25:58;;;;;;;36.63;18.35;;;;;;;9.31;100.00;95965.94;1036444;28;20256;-48
2021/04/02 01:26:33;;;;;;;28.25;17.08;;;;;;;9.27;100.00;95964.44;1031890;28;20265;-48
2021/04/02 01:27:15;;;;;;;31.52;18.55;;;;;;;9.23;100.00;95965.59;1035718;28;20545;-48
2021/04/02 01:28:05;;;;;;;29.58;17.98;;;;;;;9.34;100.00;95971.78;1028821;28;20261;-48
2021/04/02 01:28:55;;;;;;;32.28;17.95;;;;;;;9.31;100.00;95971.16;1032633;28;20336;-50
2021/04/02 01:29:29;;;;;;;29.55;16.33;;;;;;;9.20;100.00;95971.84;1037665;28;20253;-49
2021/04/02 01:30:02;;;;;;;28.52;17.80;;;;;;;9.17;100.00;95966.81;1032286;28;20030;-51
2021/04/02 01:30:34;;;;;;;28.92;18.25;;;;;;;9.19;100.00;95977.19;1028276;28;20258;-48
2021/04/02 01:31:06;;;;;;;31.92;18.58;;;;;;;9.18;100.00;95971.13;1036401;28;20354;-49
2021/04/02 01:31:38;;;;;;;30.92;19.67;;;;;;;9.23;100.00;95976.03;1040418;28;20286;-48
2021/04/02 01:32:12;;;;;;;32.55;19.42;;;;;;;9.25;100.00;95971.53;1032388;28;20273;-48
2021/04/02 01:32:44;;;;;;;34.50;18.88;;;;;;;9.22;100.00;95969.16;1033136;28;20258;-48
2021/04/02 01:33:15;;;;;;;30.35;20.10;;;;;;;9.21;100.00;95978.75;1037461;28;20241;-49
2021/04/02 01:33:46;;;;;;;29.92;18.27;;;;;;;9.12;100.00;95966.25;1036106;28;20340;-49
2021/04/02 01:34:29;;;;;;;27.83;18.40;;;;;;;9.15;100.00;95976.53;1032301;28;20080;-49
2021/04/02 01:35:14;;;;;;;30.42;18.58;;;;;;;9.10;100.00;95978.59;1032416;28;20137;-49
2021/04/02 01:35:45;;;;;;;34.53;19.25;;;;;;;9.10;100.00;95978.59;1036368;28;20299;-49
2021/04/02 01:36:15;;;;;;;33.65;19.27;;;;;;;9.10;100.00;95983.81;1036355;28;20310;-49
2021/04/02 01:36:46;;;;;;;28.20;17.95;;;;;;;9.09;100.00;95977.78;1032455;28;20443;-48
2021/04/02 01:37:22;;;;;;;29.00;18.38;;;;;;;9.05;100.00;95975.47;1032447;28;20022;-49
2021/04/02 01:37:57;;;;;;;30.33;17.42;;;;;;;9.04;100.00;95976.38;1036371;28;20475;-48
2021/04/02 01:38:31;;;;;;;33.53;18.90;;;;;;;9.01;100.00;95979.19;1036525;28;20260;-49
2021/04/02 01:39:01;;;;;;;31.58;18.98;;;;;;;9.00;100.00;95978.34;1032363;28;20321;-48
2021/04/02 01:39:35;;;;;;;29.85;18.50;;;;;;;9.01;100.00;95985.28;1036346;28;20343;-47
2021/04/02 01:40:08;;;;;;;35.42;20.17;;;;;;;8.97;100.00;95981.16;1036400;28;20110;-48
2021/04/02 01:40:41;;;;;;;33.70;19.92;;;;;;;8.97;100.00;95975.91;1028206;28;20712;-52
2021/04/02 01:41:11;;;;;;;30.08;19.13;;;;;;;8.98;100.00;95987.25;1036443;28;20277;-48
2021/04/02 01:41:44;;;;;;;27.63;18.92;;;;;;;8.97;100.00;95982.94;1040465;28;20328;-48
2021/04/02 01:42:18;;;;;;;31.10;19.23;;;;;;;8.94;100.00;95984.81;1032253;28;20041;-51
2021/04/02 01:42:49;;;;;;;31.77;20.23;;;;;;;8.94;100.00;95983.97;1032234;28;20345;-49
2021/04/02 01:43:23;;;;;;;31.00;18.98;;;;;;;8.94;100.00;95986.59;1036276;28;20267;-48
2021/04/02 01:43:55;;;;;;;30.77;19.23;;;;;;;8.93;100.00;95983.16;1032189;28;20026;-48
2021/04/02 01:44:25;;;;;;;33.53;20.00;;;;;;;8.93;100.00;95982.28;1032141;28;20812;-48
2021/04/02 01:44:56;;;;;;;28.48;19.48;;;;;;;8.94;100.00;95976.13;1032342;28;20262;-49
2021/04/02 01:45:27;;;;;;;34.53;19.08;;;;;;;8.92;100.00;95986.69;1032656;28;20022;-47
2021/04/02 01:45:58;;;;;;;38.30;20.08;;;;;;;8.94;100.00;95983.97;1032557;28;20029;-48
2021/04/02 01:46:29;;;;;;;38.13;18.67;;;;;;;8.94;100.00;95986.59;1032483;28;20018;-47
2021/04/02 01:47:00;;;;;;;33.05;18.08;;;;;;;8.94;100.00;95995.25;1040528;28;20087;-49
2021/04/02 01:47:30;;;;;;;31.25;19.33;;;;;;;8.89;100.00;95991.25;1036360;28;20083;-46
2021/04/02 01:48:01;;;;;;;38.80;19.65;;;;;;;8.89;100.00;95986.88;1036310;28;20033;-50
2021/04/02 01:48:32;;;;;;;33.60;19.75;;;;;;;8.88;100.00;95986.97;1040420;28;20467;-48
2021/04/02 01:49:04;;;;;;;31.48;20.13;;;;;;;8.88;100.00;95992.22;1036388;28;20022;-49
2021/04/02 01:49:35;;;;;;;33.72;20.10;;;;;;;8.87;100.00;95993.13;1036366;28;20253;-49
2021/04/02 01:50:16;;;;;;;28.05;19.08;;;;;;;8.85;100.00;95987.16;1036240;28;20265;-48
2021/04/02 01:50:48;;;;;;;30.15;18.02;;;;;;;8.83;100.00;95987.25;1033902;28;20349;-50
2021/04/02 01:51:19;;;;;;;33.78;19.58;;;;;;;8.85;100.00;95990.59;1034167;28;20250;-50
2021/04/02 01:51:50;;;;;;;31.23;20.67;;;;;;;8.84;100.00;95982.88;1032377;28;20361;-49
2021/04/02 01:52:21;;;;;;;33.13;20.55;;;;;;;8.76;100.00;95978.13;1036280;28;20518;-49
2021/04/02 01:52:52;;;;;;;29.92;18.52;;;;;;;8.79;100.00;95988.38;1040317;28;20018;-50
2021/04/02 01:53:25;;;;;;;34.03;19.83;;;;;;;8.75;100.00;95989.53;1036240;28;20340;-48
2021/04/02 01:53:57;;;;;;;30.30;18.90;;;;;;;8.73;100.00;95991.41;1040359;28;20084;-48
2021/04/02 01:54:28;;;;;;;32.08;19.58;;;;;;;8.72;100.00;95987.91;1040377;28;20336;-46
2021/04/02 01:54:59;;;;;;;30.15;19.80;;;;;;;8.69;100.00;95984.66;1040401;28;20259;-48
2021/04/02 01:55:30;;;;;;;30.98;20.38;;;;;;;8.72;100.00;95989.69;1036387;28;20471;-48
2021/04/02 01:56:01;;;;;;;33.30;20.40;;;;;;;8.73;100.00;95987.00;1040357;28;20252;-48
2021/04/02 01:56:33;;;;;;;38.55;20.42;;;;;;;8.72;100.00;95994.94;1040459;28;20029;-49
2021/04/02 01:57:05;;;;;;;30.95;20.35;;;;;;;8.71;100.00;95994.09;1040458;28;20816;-50
2021/04/02 01:57:38;;;;;;;31.85;20.33;;;;;;;8.71;100.00;95994.09;1040492;28;20260;-49
2021/04/02 01:58:10;;;;;;;35.25;18.35;;;;;;;8.69;100.00;95990.75;1040277;28;20256;-48
2021/04/02 01:58:42;;;;;;;33.20;21.10;;;;;;;8.69;100.00;95989.88;1036288;28;20245;-50
2021/04/02 01:59:13;;;;;;;33.13;20.98;;;;;;;8.67;100.00;95987.38;1036473;28;20252;-49
2021/04/02 01:59:44;;;;;;;34.00;19.60;;;;;;;8.65;100.00;95999.72;1036278;28;20798;-51
2021/04/02 02:00:22;;;;;;;33.38;21.13;;;;;;;8.63;100.00;95988.50;1032247;28;20599;-52
2021/04/02 02:00:55;;;;;;;42.33;21.48;;;;;;;8.62;100.00;95989.44;1032282;28;20277;-49
2021/04/02 02:01:37;;;;;;;32.95;19.35;;;;;;;8.60;100.00;95995.69;1032212;28;20806;-51
2021/04/02 02:02:08;;;;;;;30.27;20.80;;;;;;;8.57;100.00;95994.09;1036108;28;20288;-49
2021/04/02 02:02:39;;;;;;;34.22;21.48;;;;;;;8.57;100.00;96000.16;1040372;28;20811;-49
2021/04/02 02:03:10;;;;;;;32.15;20.75;;;;;;;8.55;100.00;95990.75;1036195;28;20427;-50
2021/04/02 02:03:41;;;;;;;33.92;20.05;;;;;;;8.57;100.00;95996.72;1036192;28;20261;-47
2021/04/02 02:04:13;;;;;;;30.10;19.55;;;;;;;8.61;100.00;95992.97;1036335;28;20026;-48
2021/04/02 02:04:44;;;;;;;32.97;21.20;;;;;;;8.66;100.00;95990.09;1044447;28;20375;-47
2021/04/02 02:05:15;;;;;;;31.42;20.80;;;;;;;8.70;100.00;95987.19;1036217;28;20335;-48
2021/04/02 02:05:47;;;;;;;34.10;20.17;;;;;;;8.70;100.00;95994.19;1036272;28;20264;-52
2021/04/02 02:06:17;;;;;;;35.25;21.90;;;;;;;8.69;100.00;95992.50;1032230;28;20030;-48
2021/04/02 02:06:50;;;;;;;34.20;21.27;;;;;;;8.67;100.00;95990.00;1032211;28;20621;-49
2021/04/02 02:07:21;;;;;;;29.45;20.35;;;;;;;8.66;100.00;95985.69;1036261;28;20026;-47
2021/04/02 02:07:52;;;;;;;32.67;21.25;;;;;;;8.67;100.00;95996.97;1036218;28;20623;-49
2021/04/02 02:08:23;;;;;;;36.17;20.73;;;;;;;8.62;100.00;95994.66;1032145;28;20034;-48
2021/04/02 02:08:55;;;;;;;35.17;20.70;;;;;;;8.63;100.00;95998.09;1036232;28;20018;-48
2021/04/02 02:09:29;;;;;;;33.42;20.98;;;;;;;8.62;100.00;95996.44;1036169;28;20685;-50
2021/04/02 02:10:00;;;;;;;35.28;20.90;;;;;;;8.63;100.00;95992.88;1040346;28;20266;-48
2021/04/02 02:10:30;;;;;;;32.67;20.67;;;;;;;8.63;100.00;95998.94;1036226;28;20265;-49
2021/04/02 02:11:08;;;;;;;32.22;20.55;;;;;;;8.61;100.00;95992.97;1040387;28;20028;-47
2021/04/02 02:11:40;;;;;;;33.65;21.48;;;;;;;8.64;100.00;95992.78;1044481;28;20029;-48
2021/04/02 02:12:13;;;;;;;34.03;22.23;;;;;;;8.68;100.00;95999.50;1040271;28;20268;-49
2021/04/02 02:12:45;;;;;;;35.25;21.85;;;;;;;8.66;100.00;95993.53;1032196;28;20258;-48
2021/04/02 02:13:16;;;;;;;31.13;19.50;;;;;;;8.59;100.00;95994.84;1028162;28;20676;-51
2021/04/02 02:13:50;;;;;;;31.98;19.75;;;;;;;8.57;100.00;95992.31;1036069;28;20257;-49
2021/04/02 02:14:21;;;;;;;30.23;21.23;;;;;;;8.60;100.00;95991.31;1036327;28;20662;-49
2021/04/02 02:14:51;;;;;;;33.10;20.45;;;;;;;8.57;100.00;95989.72;1036204;28;20257;-48
2021/04/02 02:15:22;;;;;;;33.42;19.40;;;;;;;8.55;100.00;95988.13;1036183;28;20026;-50
2021/04/02 02:15:53;;;;;;;34.22;20.15;;;;;;;8.54;100.00;95987.31;1036375;28;20029;-48
2021/04/02 02:16:25;;;;;;;31.58;19.88;;;;;;;8.52;100.00;95994.41;1036171;28;20569;-49
2021/04/02 02:16:58;;;;;;;37.70;22.33;;;;;;;8.52;100.00;95993.53;1036255;28;20308;-49
2021/04/02 02:17:29;;;;;;;31.52;21.40;;;;;;;8.49;100.00;95996.34;1036221;28;20253;-49
2021/04/02 02:18:01;;;;;;;33.72;21.35;;;;;;;8.49;100.00;95994.56;1032219;28;20692;-48
2021/04/02 02:18:32;;;;;;;32.83;20.55;;;;;;;8.48;100.00;95990.28;1036306;28;20026;-48
2021/04/02 02:19:08;;;;;;;34.20;21.10;;;;;;;8.47;100.00;95991.22;1036305;28;20797;-49
2021/04/02 02:19:40;;;;;;;33.00;21.35;;;;;;;8.47;100.00;95987.78;1036317;28;20415;-49
2021/04/02 02:20:12;;;;;;;36.42;21.38;;;;;;;8.42;100.00;95988.03;1040385;28;20256;-49
2021/04/02 02:20:43;;;;;;;30.63;22.15;;;;;;;8.44;100.00;95991.41;1040257;28;20264;-49
2021/04/02 02:21:13;;;;;;;37.80;21.95;;;;;;;8.45;100.00;95994.88;1036288;28;20725;-48
2021/04/02 02:21:47;;;;;;;37.38;20.33;;;;;;;8.44;100.00;95994.00;1032129;28;20246;-51
2021/04/02 02:22:19;;;;;;;33.50;22.77;;;;;;;8.43;100.00;95992.34;1032301;28;20037;-51
2021/04/02 02:22:52;;;;;;;32.85;20.75;;;;;;;8.41;100.00;95986.34;1036230;28;20261;-48
2021/04/02 02:23:23;;;;;;;33.13;21.80;;;;;;;8.41;100.00;95995.94;1036289;28;20313;-49
2021/04/02 02:23:55;;;;;;;32.22;20.75;;;;;;;8.42;100.00;95988.03;1040159;28;20248;-48
2021/04/02 02:24:26;;;;;;;33.55;20.75;;;;;;;8.37;100.00;95990.06;1036375;28;20168;-49
2021/04/02 02:24:56;;;;;;;33.40;21.33;;;;;;;8.36;100.00;95989.22;1036330;28;20287;-48
2021/04/02 02:25:27;;;;;;;37.55;23.30;;;;;;;8.36;100.00;95994.44;1036297;28;20271;-48
2021/04/02 02:25:58;;;;;;;37.63;22.35;;;;;;;8.37;100.00;95990.91;1040113;28;20029;-47
2021/04/02 02:26:28;;;;;;;45.60;21.80;;;;;;;8.38;100.00;95997.81;1044458;28;20013;-51
2021/04/02 02:26:59;;;;;;;37.05;24.27;;;;;;;8.38;100.00;95994.34;1036242;28;20049;-48
2021/04/02 02:27:30;;;;;;;32.20;21.70;;;;;;;8.36;100.00;95994.44;1040375;28;20434;-49
2021/04/02 02:28:01;;;;;;;33.88;21.17;;;;;;;8.34;100.00;95998.09;1035960;28;20025;-50
2021/04/02 02:28:31;;;;;;;31.50;21.95;;;;;;;8.30;100.00;95997.44;1040263;28;20068;-49
2021/04/02 02:29:03;;;;;;;33.67;22.33;;;;;;;8.26;100.00;95992.47;1036359;28;20014;-48
2021/04/02 02:29:33;;;;;;;33.85;22.63;;;;;;;8.25;100.00;95996.03;1032195;28;20444;-48